• Join FlightAware (Why Join?)
  • Login
  • US Flag 
05:08PM EDT


 

Airport Tracker/Info


-or-


 

Live Flight TrackerFlight Track Log ✈ AAY804 ✈ 03-Aug-2014 ✈ KPIE - KCHA

Flight Track Log - Related Links

Times and Time Zones

All times are in EDT time to prevent confusion due to time zone crossing. See the AAY804 flight status page for this flight to view local times or setup timezone preferences in your user account.

Time Position Orientation Groundspeed Altitude Reporting Facility
EDT Latitude Longitude Course Direction KTS MPH feet Rate Location/Type
08:50AM 27.9333 -82.7000 24° Northeast 171 197 900  Level Tampa TRACON
08:51AM 27.9667 -82.6833 24° Northeast 184 212 1,800 1,620 Climbing Tampa TRACON
08:52AM 28.0333 -82.6667 12° North 273 314 3,700 2,220 Climbing Tampa TRACON
08:53AM 28.1478 -82.6972 347° North 278 320 8,000 2,520 Climbing Miami Center
08:54AM 28.2061 -82.7136 346° North 282 325 9,900 1,920 Climbing Jacksonville Center
08:55AM 28.2939 -82.7347 348° North 297 342 11,200 1,680 Climbing Jacksonville Center
08:56AM 28.3897 -82.7558 349° North 326 375 13,300 1,980 Climbing Jacksonville Center
08:57AM 28.4900 -82.7792 348° North 349 402 15,200 1,800 Climbing Jacksonville Center
08:58AM 28.5964 -82.8050 348° North 368 423 16,900 1,560 Climbing Jacksonville Center
08:59AM 28.7008 -82.8311 348° North 380 437 18,400 1,560 Climbing Jacksonville Center
09:00AM 28.8114 -82.8569 348° North 385 443 20,100 1,500 Climbing Jacksonville Center
09:01AM 28.9200 -82.8831 348° North 397 457 21,500 1,380 Climbing Jacksonville Center
09:02AM 29.0347 -82.9117 348° North 402 463 22,900 1,380 Climbing Jacksonville Center
09:03AM 29.1497 -82.9400 348° North 414 476 24,300 1,320 Climbing Jacksonville Center
09:04AM 29.2664 -82.9664 349° North 419 482 25,600 1,200 Climbing Jacksonville Center
09:05AM 29.3856 -82.9975 347° North 424 488 26,700 840 Climbing Jacksonville Center
09:06AM 29.4961 -83.0261 347° North 438 504 27,300 660 Climbing Jacksonville Center
09:07AM 29.6192 -83.0597 347° North 448 516 28,100 900 Climbing Jacksonville Center
09:08AM 29.7403 -83.1150 338° Northwest 459 528 29,200 1,080 Climbing Jacksonville Center
09:09AM 29.8592 -83.1703 338° Northwest 465 535 30,300 1,200 Climbing Jacksonville Center
09:10AM 29.9758 -83.2258 338° Northwest 465 535 31,600 960 Climbing Jacksonville Center
09:11AM 30.0969 -83.2792 339° North 460 529 32,300 900 Climbing Jacksonville Center
09:12AM 30.2156 -83.3372 337° Northwest 460 529 33,500 1,200 Climbing Jacksonville Center
09:13AM 30.3322 -83.3908 338° Northwest 454 522 34,700 1,200 Climbing Jacksonville Center
09:14AM 30.4469 -83.4444 338° Northwest 454 522 35,900 600 Climbing Jacksonville Center
09:15AM 30.5594 -83.4981 338° Northwest 449 517 36,000  Climbing Jacksonville Center
09:16AM 30.6742 -83.5519 338° Northwest 444 511 36,000  Level Jacksonville Center
09:17AM 30.7844 -83.6058 337° Northwest 438 504 36,000  Level Jacksonville Center
09:18AM 30.9011 -83.6575 339° North 438 504 36,000  Level Jacksonville Center
09:19AM 31.0133 -83.7142 337° Northwest 438 504 36,000  Level Jacksonville Center
09:20AM 31.1278 -83.7686 338° Northwest 438 504 36,000  Level Jacksonville Center
09:21AM 31.2381 -83.8233 337° Northwest 438 504 36,000  Level Jacksonville Center
09:23AM 31.4397 -83.9219 337° Northwest 461 531 36,000  Level Atlanta Center
09:24AM 31.5692 -83.9756 341° North 449 517 36,000  Level Atlanta Center
09:25AM 31.6964 -84.0022 350° North 449 517 36,000  Level Atlanta Center
09:26AM 31.8197 -84.0267 350° North 449 517 36,000  Level Atlanta Center
09:27AM 31.9428 -84.0511 350° North 449 517 36,000  Level Atlanta Center
09:28AM 32.0658 -84.0806 349° North 449 517 36,000  Level Atlanta Center
09:29AM 32.1911 -84.1075 350° North 449 517 36,000  Level Atlanta Center
09:30AM 32.3164 -84.1372 349° North 449 517 36,000  Level Atlanta Center
09:31AM 32.4394 -84.1644 349° North 449 517 36,000 -300 Level Atlanta Center
09:32AM 32.5647 -84.1917 350° North 449 517 35,400 -540 Descending Atlanta Center
09:33AM 32.6900 -84.2214 349° North 449 517 35,000 -240 Descending Atlanta Center
09:34AM 32.8150 -84.2514 349° North 449 517 35,000 -240 Level Atlanta Center
09:35AM 32.9403 -84.2789 350° North 449 517 34,600 -660 Descending Atlanta Center
09:36AM 33.0675 -84.3067 350° North 449 517 33,700 -960 Descending Atlanta Center
09:37AM 33.1969 -84.3367 349° North 454 522 32,700 -1,020 Descending Atlanta Center
09:38AM 33.3222 -84.3669 349° North 454 522 31,700 -1,020 Descending Atlanta Center
09:39AM 33.4472 -84.3947 349° North 454 522 30,700 -1,320 Descending Atlanta Center
09:40AM 33.5683 -84.4228 349° North 448 516 29,100 -1,740 Descending Atlanta Center
09:41AM 33.6661 -84.4581 343° North 431 496 27,300 -1,980 Descending Atlanta Center
09:42AM 33.7725 -84.5161 336° Northwest 411 473 25,200 -1,680 Descending Atlanta Center
09:43AM 33.8767 -84.5692 337° Northwest 411 473 24,000 -900 Descending Atlanta Center
09:44AM 33.9767 -84.6250 335° Northwest 395 455 23,500 -1,680 Descending Atlanta Center
09:45AM 34.0806 -84.6833 335° Northwest 395 455 20,700 -2,400 Descending Atlanta Center
09:46AM 34.1806 -84.7344 337° Northwest 401 461 18,700 -1,560 Descending Atlanta Center
09:47AM 34.2719 -84.7828 336° Northwest 384 442 17,600 -1,500 Descending Atlanta Center
09:48AM 34.3594 -84.8314 335° Northwest 358 412 15,800 -1,920 Descending Atlanta Center
09:49AM 34.4467 -84.8775 336° Northwest 344 396 13,800 -1,800 Descending Atlanta Center
09:50AM 34.5300 -84.9264 334° Northwest 338 389 12,300 -1,260 Descending Atlanta Center
09:51AM 34.6089 -84.9675 337° Northwest 326 375 11,300 -1,620 Descending Atlanta Center
09:52AM 34.6903 -84.9861 349° North 304 350 9,100 -180 Descending Atlanta Center
09:53AM 34.7650 -85.0072 347° North 290 334 11,000 -2,100 Climbing Atlanta Center
09:54AM 34.8400 -85.0333 344° North 277 319 4,900 -3,960 Descending Atlanta Center
09:55AM 34.9089 -85.0494 349° North 261 300 3,100 -900 Descending Atlanta Center
09:56AM 34.9858 -85.0581 355° North 256 295 3,100 3,900 Level Atlanta Center
09:57AM 35.0528 -85.0614 358° North 251 289 11,000  Climbing Atlanta Center
09:58AM 35.1172 -85.0672 356° North 245 282 3,100 -7,920 Descending Atlanta Center
10:00AM 35.0352 -85.2036 234° Southwest  Level Estimated
10:07AM 35.0333 -85.2000 331° Northwest  Level FlightAware Approximate
10:08AM 35.0352 -85.2036 331° Northwest  Level Estimated
10:09AM 35.0333 -85.2000 331° Northwest  Level FlightAware Approximate
10:10AM 35.0352 -85.2036 331° Northwest  Level Estimated
10:11AM 35.0333 -85.2000 331° Northwest  Level FlightAware Approximate